sensor_id;sensor_type;location;lat;lon;timestamp;P1;durP1;ratioP1;P2;durP2;ratioP2
1000;SDS011;489;47.806;12.858;2022-08-19T00:01:39;9.80;;;8.80;;
1000;SDS011;489;47.806;12.858;2022-08-19T00:03:41;9.70;;;8.80;;
1000;SDS011;489;47.806;12.858;2022-08-19T00:05:43;9.70;;;8.90;;
1000;SDS011;489;47.806;12.858;2022-08-19T00:07:45;9.07;;;8.23;;
1000;SDS011;489;47.806;12.858;2022-08-19T00:09:47;8.60;;;7.97;;
1000;SDS011;489;47.806;12.858;2022-08-19T00:11:50;9.60;;;8.70;;
1000;SDS011;489;47.806;12.858;2022-08-19T00:13:53;9.70;;;8.90;;
1000;SDS011;489;47.806;12.858;2022-08-19T00:15:55;9.80;;;8.80;;
1000;SDS011;489;47.806;12.858;2022-08-19T00:17:58;9.60;;;8.80;;
1000;SDS011;489;47.806;12.858;2022-08-19T00:20:00;10.70;;;9.60;;
1000;SDS011;489;47.806;12.858;2022-08-19T00:22:02;8.67;;;7.97;;
1000;SDS011;489;47.806;12.858;2022-08-19T00:24:05;9.53;;;8.67;;
1000;SDS011;489;47.806;12.858;2022-08-19T00:26:08;9.90;;;9.10;;
1000;SDS011;489;47.806;12.858;2022-08-19T00:28:12;9.90;;;9.10;;
1000;SDS011;489;47.806;12.858;2022-08-19T00:30:14;8.80;;;7.90;;
1000;SDS011;489;47.806;12.858;2022-08-19T00:32:15;10.00;;;9.10;;
1000;SDS011;489;47.806;12.858;2022-08-19T00:34:17;9.30;;;8.40;;
1000;SDS011;489;47.806;12.858;2022-08-19T00:36:19;10.30;;;9.40;;
1000;SDS011;489;47.806;12.858;2022-08-19T00:38:21;8.43;;;7.73;;
1000;SDS011;489;47.806;12.858;2022-08-19T00:40:23;9.40;;;8.63;;
1000;SDS011;489;47.806;12.858;2022-08-19T00:42:25;10.60;;;9.47;;
1000;SDS011;489;47.806;12.858;2022-08-19T00:44:30;9.63;;;8.67;;
1000;SDS011;489;47.806;12.858;2022-08-19T00:46:33;10.50;;;9.40;;
1000;SDS011;489;47.806;12.858;2022-08-19T00:48:35;9.10;;;8.30;;
1000;SDS011;489;47.806;12.858;2022-08-19T00:50:38;9.87;;;8.47;;
1000;SDS011;489;47.806;12.858;2022-08-19T00:52:44;9.33;;;8.40;;
1000;SDS011;489;47.806;12.858;2022-08-19T00:54:48;9.20;;;8.43;;
1000;SDS011;489;47.806;12.858;2022-08-19T00:56:51;9.27;;;8.37;;
1000;SDS011;489;47.806;12.858;2022-08-19T00:58:53;11.20;;;9.10;;
1000;SDS011;489;47.806;12.858;2022-08-19T01:00:57;9.13;;;8.33;;
1000;SDS011;489;47.806;12.858;2022-08-19T01:02:59;10.27;;;9.10;;
1000;SDS011;489;47.806;12.858;2022-08-19T01:05:02;10.07;;;9.10;;
1000;SDS011;489;47.806;12.858;2022-08-19T01:07:06;9.07;;;8.20;;
1000;SDS011;489;47.806;12.858;2022-08-19T01:09:08;9.50;;;8.60;;
1000;SDS011;489;47.806;12.858;2022-08-19T01:11:11;8.47;;;7.77;;
1000;SDS011;489;47.806;12.858;2022-08-19T01:13:14;8.67;;;7.87;;
1000;SDS011;489;47.806;12.858;2022-08-19T01:15:17;9.27;;;8.37;;
1000;SDS011;489;47.806;12.858;2022-08-19T01:17:21;10.27;;;8.20;;
1000;SDS011;489;47.806;12.858;2022-08-19T01:19:24;8.30;;;7.70;;
1000;SDS011;489;47.806;12.858;2022-08-19T01:21:30;9.00;;;8.13;;
1000;SDS011;489;47.806;12.858;2022-08-19T01:23:35;10.77;;;9.77;;
1000;SDS011;489;47.806;12.858;2022-08-19T01:25:47;9.50;;;8.67;;
1000;SDS011;489;47.806;12.858;2022-08-19T01:27:50;8.80;;;8.00;;
1000;SDS011;489;47.806;12.858;2022-08-19T01:29:52;8.10;;;7.50;;
1000;SDS011;489;47.806;12.858;2022-08-19T01:31:54;8.60;;;7.90;;
1000;SDS011;489;47.806;12.858;2022-08-19T01:33:56;7.60;;;6.90;;
1000;SDS011;489;47.806;12.858;2022-08-19T01:36:06;9.20;;;8.33;;
1000;SDS011;489;47.806;12.858;2022-08-19T01:38:10;9.37;;;8.53;;
1000;SDS011;489;47.806;12.858;2022-08-19T01:40:21;8.60;;;7.80;;
1000;SDS011;489;47.806;12.858;2022-08-19T01:42:25;9.10;;;8.17;;
1000;SDS011;489;47.806;12.858;2022-08-19T01:44:26;8.90;;;8.20;;
1000;SDS011;489;47.806;12.858;2022-08-19T01:46:28;9.17;;;8.27;;
1000;SDS011;489;47.806;12.858;2022-08-19T01:48:32;8.53;;;7.70;;
1000;SDS011;489;47.806;12.858;2022-08-19T01:50:35;8.57;;;7.87;;
1000;SDS011;489;47.806;12.858;2022-08-19T01:52:38;8.43;;;7.73;;
1000;SDS011;489;47.806;12.858;2022-08-19T01:54:41;7.53;;;6.90;;
1000;SDS011;489;47.806;12.858;2022-08-19T01:56:44;8.47;;;7.67;;
1000;SDS011;489;47.806;12.858;2022-08-19T01:58:47;8.50;;;7.80;;
1000;SDS011;489;47.806;12.858;2022-08-19T02:00:51;9.17;;;8.37;;
1000;SDS011;489;47.806;12.858;2022-08-19T02:02:53;9.30;;;8.57;;
1000;SDS011;489;47.806;12.858;2022-08-19T02:04:54;8.97;;;8.17;;
1000;SDS011;489;47.806;12.858;2022-08-19T02:06:57;9.40;;;8.67;;
1000;SDS011;489;47.806;12.858;2022-08-19T02:08:59;9.00;;;8.30;;
1000;SDS011;489;47.806;12.858;2022-08-19T02:11:01;8.87;;;8.17;;
1000;SDS011;489;47.806;12.858;2022-08-19T02:13:05;9.47;;;8.67;;
1000;SDS011;489;47.806;12.858;2022-08-19T02:15:06;9.73;;;8.80;;
1000;SDS011;489;47.806;12.858;2022-08-19T02:17:09;9.73;;;8.83;;
1000;SDS011;489;47.806;12.858;2022-08-19T02:19:10;10.30;;;8.37;;
1000;SDS011;489;47.806;12.858;2022-08-19T02:21:12;9.23;;;8.40;;
1000;SDS011;489;47.806;12.858;2022-08-19T02:23:15;10.67;;;8.97;;
1000;SDS011;489;47.806;12.858;2022-08-19T02:25:17;9.33;;;8.53;;
1000;SDS011;489;47.806;12.858;2022-08-19T02:27:19;9.10;;;8.30;;
1000;SDS011;489;47.806;12.858;2022-08-19T02:29:21;8.90;;;8.13;;
1000;SDS011;489;47.806;12.858;2022-08-19T02:31:24;9.17;;;8.37;;
1000;SDS011;489;47.806;12.858;2022-08-19T02:33:27;9.53;;;8.73;;
1000;SDS011;489;47.806;12.858;2022-08-19T02:35:30;9.83;;;8.83;;
1000;SDS011;489;47.806;12.858;2022-08-19T02:37:32;9.60;;;8.80;;
1000;SDS011;489;47.806;12.858;2022-08-19T02:39:51;10.40;;;9.50;;
1000;SDS011;489;47.806;12.858;2022-08-19T02:41:52;11.10;;;10.10;;
1000;SDS011;489;47.806;12.858;2022-08-19T02:43:54;9.20;;;8.40;;
1000;SDS011;489;47.806;12.858;2022-08-19T02:45:59;9.10;;;8.30;;
1000;SDS011;489;47.806;12.858;2022-08-19T02:48:01;9.07;;;8.37;;
1000;SDS011;489;47.806;12.858;2022-08-19T02:50:03;10.17;;;9.27;;
1000;SDS011;489;47.806;12.858;2022-08-19T02:52:06;10.40;;;9.50;;
1000;SDS011;489;47.806;12.858;2022-08-19T02:54:08;11.33;;;10.20;;
1000;SDS011;489;47.806;12.858;2022-08-19T02:56:11;9.90;;;9.00;;
1000;SDS011;489;47.806;12.858;2022-08-19T02:58:13;9.50;;;8.60;;
1000;SDS011;489;47.806;12.858;2022-08-19T03:00:15;9.87;;;8.97;;
1000;SDS011;489;47.806;12.858;2022-08-19T03:02:19;10.03;;;9.23;;
1000;SDS011;489;47.806;12.858;2022-08-19T03:04:21;10.07;;;9.20;;
1000;SDS011;489;47.806;12.858;2022-08-19T03:06:24;10.03;;;9.13;;
1000;SDS011;489;47.806;12.858;2022-08-19T03:08:27;9.87;;;8.93;;
1000;SDS011;489;47.806;12.858;2022-08-19T03:10:28;10.87;;;9.90;;
1000;SDS011;489;47.806;12.858;2022-08-19T03:12:30;9.77;;;9.00;;
1000;SDS011;489;47.806;12.858;2022-08-19T03:14:32;9.93;;;8.90;;
1000;SDS011;489;47.806;12.858;2022-08-19T03:16:34;10.43;;;9.47;;
1000;SDS011;489;47.806;12.858;2022-08-19T03:18:39;8.80;;;8.10;;
1000;SDS011;489;47.806;12.858;2022-08-19T03:20:42;8.43;;;7.70;;
1000;SDS011;489;47.806;12.858;2022-08-19T03:22:44;10.30;;;9.40;;
1000;SDS011;489;47.806;12.858;2022-08-19T03:24:45;9.63;;;8.73;;
1000;SDS011;489;47.806;12.858;2022-08-19T03:26:49;9.73;;;8.90;;
1000;SDS011;489;47.806;12.858;2022-08-19T03:28:52;9.80;;;8.83;;
1000;SDS011;489;47.806;12.858;2022-08-19T03:30:55;10.37;;;9.37;;
1000;SDS011;489;47.806;12.858;2022-08-19T03:32:58;9.87;;;8.87;;
1000;SDS011;489;47.806;12.858;2022-08-19T03:35:01;9.57;;;8.83;;
1000;SDS011;489;47.806;12.858;2022-08-19T03:37:04;9.60;;;8.80;;
1000;SDS011;489;47.806;12.858;2022-08-19T03:39:07;8.60;;;7.80;;
1000;SDS011;489;47.806;12.858;2022-08-19T03:41:11;9.30;;;8.40;;
1000;SDS011;489;47.806;12.858;2022-08-19T03:43:13;9.63;;;8.80;;
1000;SDS011;489;47.806;12.858;2022-08-19T03:45:17;10.80;;;9.80;;
1000;SDS011;489;47.806;12.858;2022-08-19T03:47:19;13.90;;;10.93;;
1000;SDS011;489;47.806;12.858;2022-08-19T03:49:21;11.30;;;9.83;;
1000;SDS011;489;47.806;12.858;2022-08-19T03:51:27;9.13;;;8.33;;
1000;SDS011;489;47.806;12.858;2022-08-19T03:53:31;10.57;;;9.47;;
1000;SDS011;489;47.806;12.858;2022-08-19T03:55:33;19.73;;;16.73;;
1000;SDS011;489;47.806;12.858;2022-08-19T03:57:35;13.87;;;12.07;;
1000;SDS011;489;47.806;12.858;2022-08-19T03:59:37;12.07;;;10.73;;
1000;SDS011;489;47.806;12.858;2022-08-19T04:01:39;11.60;;;10.60;;
1000;SDS011;489;47.806;12.858;2022-08-19T04:03:40;11.17;;;10.07;;
1000;SDS011;489;47.806;12.858;2022-08-19T04:05:42;10.60;;;9.53;;
1000;SDS011;489;47.806;12.858;2022-08-19T04:07:45;10.33;;;9.37;;
1000;SDS011;489;47.806;12.858;2022-08-19T04:09:47;8.50;;;7.70;;
1000;SDS011;489;47.806;12.858;2022-08-19T04:11:51;8.93;;;7.43;;
1000;SDS011;489;47.806;12.858;2022-08-19T04:13:55;8.20;;;7.50;;
1000;SDS011;489;47.806;12.858;2022-08-19T04:15:57;8.63;;;7.73;;
1000;SDS011;489;47.806;12.858;2022-08-19T04:17:59;9.27;;;8.37;;
1000;SDS011;489;47.806;12.858;2022-08-19T04:20:00;9.13;;;8.23;;
1000;SDS011;489;47.806;12.858;2022-08-19T04:22:02;9.40;;;8.50;;
1000;SDS011;489;47.806;12.858;2022-08-19T04:24:06;8.40;;;7.70;;
1000;SDS011;489;47.806;12.858;2022-08-19T04:26:11;8.73;;;7.97;;
1000;SDS011;489;47.806;12.858;2022-08-19T04:28:14;11.80;;;7.77;;
1000;SDS011;489;47.806;12.858;2022-08-19T04:30:16;10.13;;;9.23;;
1000;SDS011;489;47.806;12.858;2022-08-19T04:32:17;9.87;;;9.07;;
1000;SDS011;489;47.806;12.858;2022-08-19T04:34:20;9.80;;;8.90;;
1000;SDS011;489;47.806;12.858;2022-08-19T04:36:26;11.27;;;8.70;;
1000;SDS011;489;47.806;12.858;2022-08-19T04:38:29;9.63;;;8.83;;
1000;SDS011;489;47.806;12.858;2022-08-19T04:40:32;11.50;;;10.37;;
1000;SDS011;489;47.806;12.858;2022-08-19T04:42:52;10.00;;;9.03;;
1000;SDS011;489;47.806;12.858;2022-08-19T04:44:53;10.17;;;9.17;;
1000;SDS011;489;47.806;12.858;2022-08-19T04:46:55;10.37;;;9.37;;
1000;SDS011;489;47.806;12.858;2022-08-19T04:48:57;10.83;;;9.83;;
1000;SDS011;489;47.806;12.858;2022-08-19T04:50:59;10.23;;;9.20;;
1000;SDS011;489;47.806;12.858;2022-08-19T04:53:00;10.43;;;9.53;;
1000;SDS011;489;47.806;12.858;2022-08-19T04:55:03;11.40;;;10.30;;
1000;SDS011;489;47.806;12.858;2022-08-19T04:57:09;10.90;;;9.83;;
1000;SDS011;489;47.806;12.858;2022-08-19T04:59:10;10.77;;;9.77;;
1000;SDS011;489;47.806;12.858;2022-08-19T05:01:16;10.53;;;9.53;;
1000;SDS011;489;47.806;12.858;2022-08-19T05:03:19;10.23;;;9.30;;
1000;SDS011;489;47.806;12.858;2022-08-19T05:05:22;10.53;;;9.63;;
1000;SDS011;489;47.806;12.858;2022-08-19T05:07:23;9.50;;;8.60;;
1000;SDS011;489;47.806;12.858;2022-08-19T05:09:25;10.67;;;9.60;;
1000;SDS011;489;47.806;12.858;2022-08-19T05:11:27;11.47;;;10.27;;
1000;SDS011;489;47.806;12.858;2022-08-19T05:13:31;10.83;;;9.83;;
1000;SDS011;489;47.806;12.858;2022-08-19T05:15:33;10.30;;;9.40;;
1000;SDS011;489;47.806;12.858;2022-08-19T05:17:35;10.30;;;9.40;;
1000;SDS011;489;47.806;12.858;2022-08-19T05:19:37;12.83;;;11.53;;
1000;SDS011;489;47.806;12.858;2022-08-19T05:21:56;14.43;;;11.90;;
1000;SDS011;489;47.806;12.858;2022-08-19T05:24:16;14.50;;;11.53;;
1000;SDS011;489;47.806;12.858;2022-08-19T05:26:18;10.90;;;9.90;;
1000;SDS011;489;47.806;12.858;2022-08-19T05:28:20;11.13;;;10.07;;
1000;SDS011;489;47.806;12.858;2022-08-19T05:30:23;11.33;;;10.33;;
1000;SDS011;489;47.806;12.858;2022-08-19T05:32:26;11.87;;;10.77;;
1000;SDS011;489;47.806;12.858;2022-08-19T05:34:28;10.40;;;9.50;;
1000;SDS011;489;47.806;12.858;2022-08-19T05:36:33;11.17;;;10.20;;
1000;SDS011;489;47.806;12.858;2022-08-19T05:38:36;11.37;;;10.37;;
1000;SDS011;489;47.806;12.858;2022-08-19T05:40:38;10.83;;;9.83;;
1000;SDS011;489;47.806;12.858;2022-08-19T05:42:40;13.20;;;11.80;;
1000;SDS011;489;47.806;12.858;2022-08-19T05:44:42;26.50;;;17.90;;
1000;SDS011;489;47.806;12.858;2022-08-19T05:46:46;20.43;;;17.73;;
1000;SDS011;489;47.806;12.858;2022-08-19T05:48:48;14.63;;;13.23;;
1000;SDS011;489;47.806;12.858;2022-08-19T05:50:49;12.10;;;11.00;;
1000;SDS011;489;47.806;12.858;2022-08-19T05:52:51;12.57;;;11.57;;
1000;SDS011;489;47.806;12.858;2022-08-19T05:54:53;11.80;;;10.70;;
1000;SDS011;489;47.806;12.858;2022-08-19T05:56:55;11.97;;;10.87;;
1000;SDS011;489;47.806;12.858;2022-08-19T05:58:58;12.03;;;10.87;;
1000;SDS011;489;47.806;12.858;2022-08-19T06:01:00;11.67;;;10.60;;
1000;SDS011;489;47.806;12.858;2022-08-19T06:03:06;11.53;;;10.53;;
1000;SDS011;489;47.806;12.858;2022-08-19T06:05:09;11.73;;;10.63;;
1000;SDS011;489;47.806;12.858;2022-08-19T06:07:11;11.53;;;10.43;;
1000;SDS011;489;47.806;12.858;2022-08-19T06:09:13;12.10;;;10.90;;
1000;SDS011;489;47.806;12.858;2022-08-19T06:11:16;11.93;;;10.80;;
1000;SDS011;489;47.806;12.858;2022-08-19T06:13:21;13.07;;;11.77;;
1000;SDS011;489;47.806;12.858;2022-08-19T06:15:23;12.77;;;11.57;;
1000;SDS011;489;47.806;12.858;2022-08-19T06:17:27;11.60;;;10.50;;
1000;SDS011;489;47.806;12.858;2022-08-19T06:19:31;13.17;;;11.80;;
1000;SDS011;489;47.806;12.858;2022-08-19T06:21:33;11.80;;;10.70;;
1000;SDS011;489;47.806;12.858;2022-08-19T06:23:37;12.57;;;11.47;;
1000;SDS011;489;47.806;12.858;2022-08-19T06:25:39;12.63;;;11.53;;
1000;SDS011;489;47.806;12.858;2022-08-19T06:27:41;12.30;;;11.20;;
1000;SDS011;489;47.806;12.858;2022-08-19T06:29:43;12.77;;;11.57;;
1000;SDS011;489;47.806;12.858;2022-08-19T06:31:47;12.67;;;11.50;;
1000;SDS011;489;47.806;12.858;2022-08-19T06:33:50;12.33;;;11.13;;
1000;SDS011;489;47.806;12.858;2022-08-19T06:35:53;12.43;;;11.30;;
1000;SDS011;489;47.806;12.858;2022-08-19T06:37:55;12.10;;;11.10;;
1000;SDS011;489;47.806;12.858;2022-08-19T06:39:57;13.20;;;11.90;;
1000;SDS011;489;47.806;12.858;2022-08-19T06:42:00;12.93;;;11.83;;
1000;SDS011;489;47.806;12.858;2022-08-19T06:44:06;12.87;;;11.67;;
1000;SDS011;489;47.806;12.858;2022-08-19T06:46:12;12.57;;;11.53;;
1000;SDS011;489;47.806;12.858;2022-08-19T06:48:15;12.10;;;11.00;;
1000;SDS011;489;47.806;12.858;2022-08-19T06:50:18;12.00;;;10.90;;
1000;SDS011;489;47.806;12.858;2022-08-19T06:52:21;12.47;;;11.27;;
1000;SDS011;489;47.806;12.858;2022-08-19T06:54:24;12.10;;;10.90;;
1000;SDS011;489;47.806;12.858;2022-08-19T06:56:26;11.10;;;9.97;;
1000;SDS011;489;47.806;12.858;2022-08-19T06:58:33;9.07;;;8.17;;
1000;SDS011;489;47.806;12.858;2022-08-19T07:00:35;8.00;;;7.30;;
1000;SDS011;489;47.806;12.858;2022-08-19T07:02:37;6.77;;;6.27;;
1000;SDS011;489;47.806;12.858;2022-08-19T07:04:39;5.60;;;5.10;;
1000;SDS011;489;47.806;12.858;2022-08-19T07:06:41;5.37;;;4.97;;
1000;SDS011;489;47.806;12.858;2022-08-19T07:08:45;5.87;;;5.40;;
1000;SDS011;489;47.806;12.858;2022-08-19T07:10:47;6.90;;;6.30;;
1000;SDS011;489;47.806;12.858;2022-08-19T07:12:49;8.60;;;7.90;;
1000;SDS011;489;47.806;12.858;2022-08-19T07:14:51;7.77;;;7.17;;
1000;SDS011;489;47.806;12.858;2022-08-19T07:16:54;6.77;;;6.17;;
1000;SDS011;489;47.806;12.858;2022-08-19T07:18:57;5.53;;;5.13;;
1000;SDS011;489;47.806;12.858;2022-08-19T07:21:03;5.90;;;5.50;;
1000;SDS011;489;47.806;12.858;2022-08-19T07:23:05;4.80;;;4.40;;
1000;SDS011;489;47.806;12.858;2022-08-19T07:25:09;5.27;;;4.87;;
1000;SDS011;489;47.806;12.858;2022-08-19T07:27:13;5.73;;;5.20;;
1000;SDS011;489;47.806;12.858;2022-08-19T07:29:15;5.03;;;4.63;;
1000;SDS011;489;47.806;12.858;2022-08-19T07:31:18;5.13;;;4.73;;
1000;SDS011;489;47.806;12.858;2022-08-19T07:33:20;5.10;;;4.70;;
1000;SDS011;489;47.806;12.858;2022-08-19T07:35:22;4.37;;;3.97;;
1000;SDS011;489;47.806;12.858;2022-08-19T07:37:24;5.20;;;4.80;;
1000;SDS011;489;47.806;12.858;2022-08-19T07:39:29;6.13;;;5.53;;
1000;SDS011;489;47.806;12.858;2022-08-19T07:41:34;7.37;;;6.77;;
1000;SDS011;489;47.806;12.858;2022-08-19T07:43:37;8.20;;;7.50;;
1000;SDS011;489;47.806;12.858;2022-08-19T07:45:39;6.80;;;6.20;;
1000;SDS011;489;47.806;12.858;2022-08-19T07:47:42;5.27;;;4.80;;
1000;SDS011;489;47.806;12.858;2022-08-19T07:49:44;4.93;;;4.47;;
1000;SDS011;489;47.806;12.858;2022-08-19T07:51:47;3.93;;;3.27;;
1000;SDS011;489;47.806;12.858;2022-08-19T07:53:51;4.10;;;3.80;;
1000;SDS011;489;47.806;12.858;2022-08-19T07:55:53;3.13;;;2.93;;
1000;SDS011;489;47.806;12.858;2022-08-19T07:57:56;3.43;;;3.13;;
1000;SDS011;489;47.806;12.858;2022-08-19T07:59:58;3.37;;;3.17;;
1000;SDS011;489;47.806;12.858;2022-08-19T08:02:00;3.70;;;3.40;;
1000;SDS011;489;47.806;12.858;2022-08-19T08:04:02;3.53;;;3.33;;
1000;SDS011;489;47.806;12.858;2022-08-19T08:06:22;3.60;;;3.30;;
1000;SDS011;489;47.806;12.858;2022-08-19T08:08:42;3.70;;;3.40;;
1000;SDS011;489;47.806;12.858;2022-08-19T08:11:01;3.67;;;3.37;;
1000;SDS011;489;47.806;12.858;2022-08-19T08:13:04;3.57;;;3.27;;
1000;SDS011;489;47.806;12.858;2022-08-19T08:15:07;3.40;;;3.20;;
1000;SDS011;489;47.806;12.858;2022-08-19T08:17:12;3.27;;;2.97;;
1000;SDS011;489;47.806;12.858;2022-08-19T08:19:15;3.60;;;3.30;;
1000;SDS011;489;47.806;12.858;2022-08-19T08:21:17;3.00;;;2.80;;
1000;SDS011;489;47.806;12.858;2022-08-19T08:23:19;3.30;;;3.10;;
1000;SDS011;489;47.806;12.858;2022-08-19T08:25:23;4.10;;;3.70;;
1000;SDS011;489;47.806;12.858;2022-08-19T08:27:25;3.30;;;3.10;;
1000;SDS011;489;47.806;12.858;2022-08-19T08:29:30;3.53;;;3.27;;
1000;SDS011;489;47.806;12.858;2022-08-19T08:31:33;3.77;;;3.47;;
1000;SDS011;489;47.806;12.858;2022-08-19T08:33:35;3.50;;;3.30;;
1000;SDS011;489;47.806;12.858;2022-08-19T08:35:36;3.37;;;3.17;;
1000;SDS011;489;47.806;12.858;2022-08-19T08:37:39;3.20;;;3.00;;
1000;SDS011;489;47.806;12.858;2022-08-19T08:39:40;3.40;;;3.20;;
1000;SDS011;489;47.806;12.858;2022-08-19T08:41:44;3.07;;;2.87;;
1000;SDS011;489;47.806;12.858;2022-08-19T08:43:49;3.20;;;3.00;;
1000;SDS011;489;47.806;12.858;2022-08-19T08:45:56;3.37;;;3.10;;
1000;SDS011;489;47.806;12.858;2022-08-19T08:48:02;3.83;;;3.63;;
1000;SDS011;489;47.806;12.858;2022-08-19T08:50:10;3.87;;;3.57;;
1000;SDS011;489;47.806;12.858;2022-08-19T08:52:22;3.70;;;3.40;;
1000;SDS011;489;47.806;12.858;2022-08-19T08:54:27;3.93;;;3.63;;
1000;SDS011;489;47.806;12.858;2022-08-19T08:56:32;4.10;;;3.80;;
1000;SDS011;489;47.806;12.858;2022-08-19T08:58:36;3.70;;;3.40;;
1000;SDS011;489;47.806;12.858;2022-08-19T09:00:44;3.40;;;3.20;;
1000;SDS011;489;47.806;12.858;2022-08-19T09:02:48;3.77;;;3.53;;
1000;SDS011;489;47.806;12.858;2022-08-19T09:04:50;4.00;;;3.70;;
1000;SDS011;489;47.806;12.858;2022-08-19T09:06:54;4.10;;;3.70;;
1000;SDS011;489;47.806;12.858;2022-08-19T09:09:11;4.00;;;3.40;;
1000;SDS011;489;47.806;12.858;2022-08-19T09:11:18;4.17;;;3.87;;
1000;SDS011;489;47.806;12.858;2022-08-19T09:13:24;4.90;;;4.23;;
1000;SDS011;489;47.806;12.858;2022-08-19T09:15:32;3.90;;;3.60;;
1000;SDS011;489;47.806;12.858;2022-08-19T09:17:38;3.87;;;3.57;;
1000;SDS011;489;47.806;12.858;2022-08-19T09:19:48;3.57;;;3.27;;
1000;SDS011;489;47.806;12.858;2022-08-19T09:21:51;3.90;;;3.60;;
1000;SDS011;489;47.806;12.858;2022-08-19T09:23:53;3.77;;;3.47;;
1000;SDS011;489;47.806;12.858;2022-08-19T09:25:55;3.43;;;3.20;;
1000;SDS011;489;47.806;12.858;2022-08-19T09:27:57;3.40;;;3.10;;
1000;SDS011;489;47.806;12.858;2022-08-19T09:30:03;3.77;;;3.47;;
1000;SDS011;489;47.806;12.858;2022-08-19T09:32:05;4.00;;;3.70;;
1000;SDS011;489;47.806;12.858;2022-08-19T09:34:07;3.53;;;3.23;;
1000;SDS011;489;47.806;12.858;2022-08-19T09:36:12;3.33;;;3.10;;
1000;SDS011;489;47.806;12.858;2022-08-19T09:38:15;4.07;;;3.63;;
1000;SDS011;489;47.806;12.858;2022-08-19T09:40:17;3.57;;;3.27;;
1000;SDS011;489;47.806;12.858;2022-08-19T09:42:20;3.63;;;3.33;;
1000;SDS011;489;47.806;12.858;2022-08-19T09:44:21;3.83;;;3.43;;
1000;SDS011;489;47.806;12.858;2022-08-19T09:46:24;3.60;;;3.30;;
1000;SDS011;489;47.806;12.858;2022-08-19T09:48:27;3.77;;;3.47;;
1000;SDS011;489;47.806;12.858;2022-08-19T09:50:29;3.80;;;3.50;;
1000;SDS011;489;47.806;12.858;2022-08-19T09:52:35;3.40;;;3.20;;
1000;SDS011;489;47.806;12.858;2022-08-19T09:54:37;3.50;;;3.20;;
1000;SDS011;489;47.806;12.858;2022-08-19T09:56:39;3.67;;;3.37;;
1000;SDS011;489;47.806;12.858;2022-08-19T09:58:41;3.97;;;3.67;;
1000;SDS011;489;47.806;12.858;2022-08-19T10:00:43;3.67;;;3.37;;
1000;SDS011;489;47.806;12.858;2022-08-19T10:02:46;4.10;;;3.80;;
1000;SDS011;489;47.806;12.858;2022-08-19T10:04:47;4.07;;;3.77;;
1000;SDS011;489;47.806;12.858;2022-08-19T10:07:07;4.60;;;4.20;;
1000;SDS011;489;47.806;12.858;2022-08-19T10:09:10;4.07;;;3.77;;
1000;SDS011;489;47.806;12.858;2022-08-19T10:11:12;3.70;;;3.40;;
1000;SDS011;489;47.806;12.858;2022-08-19T10:13:17;4.37;;;3.97;;
1000;SDS011;489;47.806;12.858;2022-08-19T10:15:21;4.20;;;3.90;;
1000;SDS011;489;47.806;12.858;2022-08-19T10:17:23;3.60;;;3.30;;
1000;SDS011;489;47.806;12.858;2022-08-19T10:19:25;4.30;;;3.90;;
1000;SDS011;489;47.806;12.858;2022-08-19T10:21:29;4.27;;;3.97;;
1000;SDS011;489;47.806;12.858;2022-08-19T10:23:32;3.90;;;3.60;;
1000;SDS011;489;47.806;12.858;2022-08-19T10:25:35;4.23;;;3.93;;
1000;SDS011;489;47.806;12.858;2022-08-19T10:27:37;4.30;;;4.00;;
1000;SDS011;489;47.806;12.858;2022-08-19T10:29:39;3.67;;;3.37;;
1000;SDS011;489;47.806;12.858;2022-08-19T10:31:41;5.10;;;4.60;;
1000;SDS011;489;47.806;12.858;2022-08-19T10:33:43;5.17;;;4.77;;
1000;SDS011;489;47.806;12.858;2022-08-19T10:35:45;4.47;;;3.70;;
1000;SDS011;489;47.806;12.858;2022-08-19T10:37:47;5.03;;;4.53;;
1000;SDS011;489;47.806;12.858;2022-08-19T10:39:48;4.57;;;4.17;;
1000;SDS011;489;47.806;12.858;2022-08-19T10:41:52;4.27;;;3.97;;
1000;SDS011;489;47.806;12.858;2022-08-19T10:43:54;4.10;;;3.80;;
1000;SDS011;489;47.806;12.858;2022-08-19T10:45:58;5.17;;;4.67;;
1000;SDS011;489;47.806;12.858;2022-08-19T10:47:59;4.33;;;4.03;;
1000;SDS011;489;47.806;12.858;2022-08-19T10:50:02;4.30;;;4.00;;
1000;SDS011;489;47.806;12.858;2022-08-19T10:52:21;4.17;;;3.87;;
1000;SDS011;489;47.806;12.858;2022-08-19T10:54:35;4.00;;;3.70;;
1000;SDS011;489;47.806;12.858;2022-08-19T10:56:55;4.40;;;4.10;;
1000;SDS011;489;47.806;12.858;2022-08-19T10:58:57;4.53;;;3.93;;
1000;SDS011;489;47.806;12.858;2022-08-19T11:00:59;4.40;;;4.10;;
1000;SDS011;489;47.806;12.858;2022-08-19T11:03:01;4.57;;;4.27;;
1000;SDS011;489;47.806;12.858;2022-08-19T11:05:03;3.73;;;3.43;;
1000;SDS011;489;47.806;12.858;2022-08-19T11:07:07;3.80;;;3.50;;
1000;SDS011;489;47.806;12.858;2022-08-19T11:09:10;5.23;;;4.60;;
1000;SDS011;489;47.806;12.858;2022-08-19T11:11:12;4.10;;;3.80;;
1000;SDS011;489;47.806;12.858;2022-08-19T11:13:15;5.10;;;4.60;;
1000;SDS011;489;47.806;12.858;2022-08-19T11:15:17;4.70;;;4.30;;
1000;SDS011;489;47.806;12.858;2022-08-19T11:17:18;4.03;;;3.73;;
1000;SDS011;489;47.806;12.858;2022-08-19T11:19:23;3.90;;;3.60;;
1000;SDS011;489;47.806;12.858;2022-08-19T11:21:26;4.60;;;4.20;;
1000;SDS011;489;47.806;12.858;2022-08-19T11:23:30;4.07;;;3.77;;
1000;SDS011;489;47.806;12.858;2022-08-19T11:25:32;3.73;;;3.53;;
1000;SDS011;489;47.806;12.858;2022-08-19T11:27:36;4.17;;;3.60;;
1000;SDS011;489;47.806;12.858;2022-08-19T11:29:41;4.40;;;4.10;;
1000;SDS011;489;47.806;12.858;2022-08-19T11:31:43;5.20;;;4.80;;
1000;SDS011;489;47.806;12.858;2022-08-19T11:33:46;4.97;;;4.57;;
1000;SDS011;489;47.806;12.858;2022-08-19T11:35:50;4.40;;;4.10;;
1000;SDS011;489;47.806;12.858;2022-08-19T11:37:52;4.27;;;3.97;;
1000;SDS011;489;47.806;12.858;2022-08-19T11:39:54;4.40;;;4.00;;
1000;SDS011;489;47.806;12.858;2022-08-19T11:41:57;3.90;;;3.60;;
1000;SDS011;489;47.806;12.858;2022-08-19T11:43:59;4.07;;;3.77;;
1000;SDS011;489;47.806;12.858;2022-08-19T11:46:05;3.33;;;3.13;;
1000;SDS011;489;47.806;12.858;2022-08-19T11:48:07;4.00;;;3.70;;
1000;SDS011;489;47.806;12.858;2022-08-19T11:50:09;4.77;;;4.37;;
1000;SDS011;489;47.806;12.858;2022-08-19T11:52:11;4.80;;;4.40;;
1000;SDS011;489;47.806;12.858;2022-08-19T11:54:13;4.30;;;4.00;;
1000;SDS011;489;47.806;12.858;2022-08-19T11:56:16;5.37;;;4.97;;
1000;SDS011;489;47.806;12.858;2022-08-19T11:58:18;4.87;;;4.47;;
1000;SDS011;489;47.806;12.858;2022-08-19T12:00:20;4.27;;;3.97;;
1000;SDS011;489;47.806;12.858;2022-08-19T12:02:23;5.50;;;5.00;;
1000;SDS011;489;47.806;12.858;2022-08-19T12:04:25;4.50;;;4.10;;
1000;SDS011;489;47.806;12.858;2022-08-19T12:06:28;4.20;;;3.90;;
1000;SDS011;489;47.806;12.858;2022-08-19T12:08:32;4.70;;;4.30;;
1000;SDS011;489;47.806;12.858;2022-08-19T12:10:34;4.70;;;4.30;;
1000;SDS011;489;47.806;12.858;2022-08-19T12:12:36;4.43;;;4.03;;
1000;SDS011;489;47.806;12.858;2022-08-19T12:14:42;4.50;;;4.10;;
1000;SDS011;489;47.806;12.858;2022-08-19T12:16:44;4.23;;;3.90;;
1000;SDS011;489;47.806;12.858;2022-08-19T12:18:49;4.93;;;4.53;;
1000;SDS011;489;47.806;12.858;2022-08-19T12:20:52;4.70;;;4.40;;
1000;SDS011;489;47.806;12.858;2022-08-19T12:22:56;5.50;;;4.67;;
1000;SDS011;489;47.806;12.858;2022-08-19T12:24:58;5.30;;;4.80;;
1000;SDS011;489;47.806;12.858;2022-08-19T12:27:00;4.00;;;3.70;;
1000;SDS011;489;47.806;12.858;2022-08-19T12:29:02;4.17;;;3.87;;
1000;SDS011;489;47.806;12.858;2022-08-19T12:31:05;4.57;;;4.17;;
1000;SDS011;489;47.806;12.858;2022-08-19T12:33:06;4.00;;;3.70;;
1000;SDS011;489;47.806;12.858;2022-08-19T12:35:10;4.20;;;3.90;;
1000;SDS011;489;47.806;12.858;2022-08-19T12:37:12;4.80;;;4.40;;
1000;SDS011;489;47.806;12.858;2022-08-19T12:39:14;4.30;;;4.00;;
1000;SDS011;489;47.806;12.858;2022-08-19T12:41:16;4.43;;;4.13;;
1000;SDS011;489;47.806;12.858;2022-08-19T12:43:19;3.60;;;3.30;;